createdAt,value
2018-10-18T00:01:49.843Z,43.70
2018-10-18T00:06:42.388Z,43.63
2018-10-18T00:11:35.013Z,45.87
2018-10-18T00:16:27.897Z,43.53
2018-10-18T00:21:20.513Z,43.87
2018-10-18T00:26:13.247Z,43.67
2018-10-18T00:31:05.851Z,43.57
2018-10-18T00:35:58.497Z,43.37
2018-10-18T00:40:51.069Z,44.23
2018-10-18T00:45:43.895Z,44.17
2018-10-18T00:50:36.558Z,45.73
2018-10-18T00:55:29.173Z,45.53
2018-10-18T01:00:21.787Z,43.90
2018-10-18T01:05:14.527Z,45.37
2018-10-18T01:10:07.150Z,45.57
2018-10-18T01:14:59.804Z,45.63
2018-10-18T01:19:52.649Z,46.70
2018-10-18T01:24:45.283Z,45.60
2018-10-18T01:29:37.981Z,46.10
2018-10-18T01:34:30.612Z,45.93
2018-10-18T01:39:23.281Z,47.23
2018-10-18T01:44:15.994Z,47.23
2018-10-18T01:49:08.650Z,46.17
2018-10-18T01:54:01.277Z,46.37
2018-10-18T01:58:53.883Z,44.33
2018-10-18T02:03:46.547Z,43.73
2018-10-18T02:08:39.174Z,44.60
2018-10-18T02:13:31.823Z,45.93
2018-10-18T02:18:24.493Z,43.30
2018-10-18T02:23:17.092Z,43.63
2018-10-18T02:28:09.723Z,44.53
2018-10-18T02:33:02.343Z,44.10
2018-10-18T02:37:54.970Z,44.80
2018-10-18T02:42:47.606Z,45.33
2018-10-18T02:47:40.204Z,46.77
2018-10-18T02:52:32.805Z,46.57
2018-10-18T02:57:25.480Z,45.67
2018-10-18T03:02:18.142Z,45.93
2018-10-18T03:07:10.807Z,47.63
2018-10-18T03:12:03.841Z,45.87
2018-10-18T03:16:56.398Z,48.50
2018-10-18T03:21:49.055Z,51.03
2018-10-18T03:26:41.718Z,49.40
2018-10-18T03:31:34.380Z,49.30
2018-10-18T03:36:27.056Z,53.20
2018-10-18T03:41:19.738Z,54.17
2018-10-18T03:46:12.417Z,51.43
2018-10-18T03:51:05.170Z,52.03
2018-10-18T03:55:57.741Z,49.27
2018-10-18T04:00:50.379Z,51.80
2018-10-18T04:05:43.065Z,52.77
2018-10-18T04:10:35.856Z,50.23
2018-10-18T04:15:28.482Z,50.83
2018-10-18T04:20:21.098Z,51.00
2018-10-18T04:25:13.775Z,52.43
2018-10-18T04:30:06.918Z,48.87
2018-10-18T04:34:59.457Z,50.30
2018-10-18T04:39:52.101Z,51.13
2018-10-18T04:44:44.870Z,48.93
2018-10-18T04:49:37.687Z,49.27
2018-10-18T04:54:30.346Z,48.77
2018-10-18T04:59:22.960Z,48.53
2018-10-18T05:04:16.568Z,52.00
2018-10-18T05:09:09.408Z,48.03
2018-10-18T05:14:01.993Z,49.47
2018-10-18T05:18:54.648Z,49.03
2018-10-18T05:23:47.435Z,51.73
2018-10-18T05:28:40.155Z,49.20
2018-10-18T05:33:32.857Z,48.97
2018-10-18T05:38:25.630Z,48.50
2018-10-18T05:43:18.357Z,51.13
2018-10-18T05:48:10.956Z,47.60
2018-10-18T05:53:03.660Z,45.97
2018-10-18T05:57:56.350Z,47.80
2018-10-18T06:02:49.786Z,48.97
2018-10-18T06:07:42.977Z,47.87
2018-10-18T06:12:35.623Z,45.43
2018-10-18T06:17:28.338Z,45.67
2018-10-18T06:27:24.909Z,48.68
2018-10-18T06:32:17.623Z,48.03
2018-10-18T06:37:10.277Z,49.93
2018-10-18T06:42:02.881Z,48.87
2018-10-18T06:46:55.571Z,49.40
2018-10-18T06:51:48.328Z,49.20
2018-10-18T06:56:40.941Z,51.73
2018-10-18T07:01:33.510Z,49.97
2018-10-18T07:06:26.136Z,53.40
2018-10-18T07:11:18.729Z,47.00
2018-10-18T07:16:11.433Z,47.40
2018-10-18T07:21:04.658Z,49.23
2018-10-18T07:25:57.275Z,47.37
2018-10-18T07:30:50.008Z,49.77
2018-10-18T07:35:42.650Z,50.03
2018-10-18T07:40:35.243Z,51.07
2018-10-18T07:45:27.867Z,56.70
2018-10-18T07:50:20.458Z,55.63
2018-10-18T07:55:13.074Z,58.43
2018-10-18T08:00:08.760Z,58.93
2018-10-18T08:05:01.275Z,60.17
2018-10-18T08:09:53.937Z,60.53
2018-10-18T08:14:46.522Z,60.17
2018-10-18T08:19:39.154Z,59.70
2018-10-18T08:24:31.846Z,58.77
2018-10-18T08:29:24.498Z,60.00
2018-10-18T08:34:17.123Z,61.20
2018-10-18T08:39:10.502Z,61.93
2018-10-18T08:44:03.350Z,59.70
2018-10-18T08:48:55.977Z,59.40
2018-10-18T08:53:48.634Z,59.33
2018-10-18T08:58:41.234Z,60.17
2018-10-18T09:03:33.880Z,55.73
2018-10-18T09:08:26.529Z,58.03
2018-10-18T09:13:19.275Z,57.00
2018-10-18T09:18:11.829Z,56.90
2018-10-18T09:23:05.048Z,55.93
2018-10-18T09:27:57.706Z,54.30
2018-10-18T09:32:50.262Z,54.20
2018-10-18T09:37:42.886Z,53.83
2018-10-18T09:42:35.454Z,53.07
2018-10-18T09:47:28.098Z,52.63
2018-10-18T09:52:20.721Z,50.60
2018-10-18T09:57:13.362Z,48.80
2018-10-18T10:02:11.797Z,47.63
2018-10-18T10:07:04.736Z,48.27
2018-10-18T10:11:57.313Z,49.17
2018-10-18T10:16:49.894Z,50.47
2018-10-18T10:21:42.541Z,49.77
2018-10-18T10:26:35.086Z,48.43
2018-10-18T10:31:28.003Z,48.07
2018-10-18T10:36:20.617Z,47.63
2018-10-18T10:41:13.228Z,44.00
2018-10-18T10:46:05.831Z,40.37
2018-10-18T10:50:58.482Z,38.07
2018-10-18T10:55:51.294Z,39.40
2018-10-18T11:01:22.475Z,38.27
2018-10-18T11:06:15.216Z,37.40
2018-10-18T11:11:08.053Z,36.53
2018-10-18T11:16:01.654Z,36.40
2018-10-18T11:20:54.266Z,36.33
2018-10-18T11:25:46.850Z,36.33
2018-10-18T11:30:39.449Z,37.73
2018-10-18T11:35:32.020Z,36.13
2018-10-18T11:40:24.671Z,35.97
2018-10-18T11:45:17.348Z,37.03
2018-10-18T11:50:10.027Z,36.63
2018-10-18T11:55:02.673Z,35.83
2018-10-18T11:59:55.321Z,34.67
2018-10-18T12:04:47.925Z,33.73
2018-10-18T12:09:40.676Z,33.57
2018-10-18T12:14:33.262Z,32.40
2018-10-18T12:19:25.890Z,32.63
2018-10-18T12:24:18.478Z,33.27
2018-10-18T12:29:11.258Z,34.30
2018-10-18T12:34:04.156Z,32.00
2018-10-18T12:38:56.713Z,33.30
2018-10-18T12:43:49.287Z,32.77
2018-10-18T12:48:42.106Z,34.57
2018-10-18T12:53:34.742Z,34.63
2018-10-18T12:58:27.422Z,34.40
2018-10-18T13:03:20.069Z,35.07
2018-10-18T13:08:12.811Z,36.77
2018-10-18T13:13:05.397Z,35.63
2018-10-18T13:17:58.169Z,35.90
2018-10-18T13:22:51.027Z,35.77
2018-10-18T13:27:43.757Z,34.63
2018-10-18T13:32:36.463Z,34.10
2018-10-18T13:37:29.246Z,34.80
2018-10-18T13:42:21.934Z,33.90
2018-10-18T13:47:14.902Z,35.17
2018-10-18T13:52:07.562Z,32.93
2018-10-18T13:57:00.158Z,33.17
2018-10-18T14:01:52.818Z,32.80
2018-10-18T14:06:45.624Z,31.90
2018-10-18T14:11:38.343Z,33.67
2018-10-18T14:16:30.953Z,32.13
2018-10-18T14:21:23.656Z,32.07
2018-10-18T14:26:16.684Z,31.60
2018-10-18T14:31:09.218Z,31.93
2018-10-18T14:36:01.846Z,30.80
2018-10-18T14:40:54.592Z,31.90
2018-10-18T14:45:47.439Z,31.70
2018-10-18T14:50:40.195Z,30.10
2018-10-18T14:55:33.081Z,30.37
2018-10-18T15:00:25.888Z,29.53
2018-10-18T15:05:18.633Z,28.90
2018-10-18T15:10:12.309Z,29.13
2018-10-18T15:15:06.571Z,31.37
2018-10-18T15:19:59.165Z,29.63
2018-10-18T15:24:51.757Z,29.70
2018-10-18T15:29:44.434Z,27.53
2018-10-18T15:34:37.113Z,28.73
2018-10-18T15:39:29.807Z,30.17
2018-10-18T15:44:22.693Z,28.77
2018-10-18T15:49:15.181Z,28.43
2018-10-18T15:54:07.877Z,30.17
2018-10-18T15:59:00.462Z,31.30
2018-10-18T16:03:53.055Z,30.73
2018-10-18T16:08:45.625Z,30.10
2018-10-18T16:13:38.313Z,31.67
2018-10-18T16:18:30.848Z,31.57
2018-10-18T16:23:23.500Z,30.00
2018-10-18T16:28:16.084Z,31.40
2018-10-18T16:33:08.934Z,31.30
2018-10-18T16:38:01.530Z,30.60
2018-10-18T16:42:54.098Z,29.13
2018-10-18T16:47:46.725Z,27.20
2018-10-18T16:52:39.633Z,26.00
2018-10-18T16:57:32.496Z,20.80
2018-10-18T17:02:25.015Z,18.20
2018-10-18T17:07:17.598Z,16.80
2018-10-18T17:12:10.372Z,14.90
2018-10-18T17:17:02.995Z,13.83
2018-10-18T17:21:55.508Z,13.47
2018-10-18T17:26:48.139Z,14.20
2018-10-18T17:31:40.637Z,14.50
2018-10-18T17:36:33.194Z,15.90
2018-10-18T17:41:26.110Z,16.80
2018-10-18T17:46:18.776Z,18.27
2018-10-18T17:51:11.454Z,19.10
2018-10-18T17:56:04.527Z,17.97
2018-10-18T18:00:57.142Z,18.77
2018-10-18T18:05:50.402Z,17.77
2018-10-18T18:10:43.173Z,18.23
2018-10-18T18:15:35.760Z,19.10
2018-10-18T18:20:28.401Z,17.70
2018-10-18T18:25:20.976Z,17.37
2018-10-18T18:30:14.641Z,16.87
2018-10-18T18:35:07.475Z,17.33
2018-10-18T18:40:00.130Z,16.47
2018-10-18T18:44:58.515Z,16.83
2018-10-18T18:49:51.247Z,16.23
2018-10-18T18:54:44.017Z,15.23
2018-10-18T18:59:36.609Z,14.03
2018-10-18T19:04:29.212Z,12.17
2018-10-18T19:09:21.881Z,11.57
2018-10-18T19:14:14.606Z,10.30
2018-10-18T19:19:07.277Z,9.13
2018-10-18T19:23:59.968Z,8.93
2018-10-18T19:28:52.579Z,8.77
2018-10-18T19:33:45.341Z,8.23
2018-10-18T19:38:38.148Z,7.73
2018-10-18T19:43:30.763Z,8.17
2018-10-18T19:48:23.450Z,8.53
2018-10-18T19:53:17.247Z,8.00
2018-10-18T19:58:10.328Z,7.20
2018-10-18T20:03:03.079Z,7.90
2018-10-18T20:07:55.847Z,8.03
2018-10-18T20:12:48.489Z,7.80
2018-10-18T20:17:41.197Z,7.53
2018-10-18T20:22:33.748Z,7.50
2018-10-18T20:27:26.654Z,8.17
2018-10-18T20:32:19.434Z,7.67
2018-10-18T20:37:12.067Z,7.43
2018-10-18T20:42:05.048Z,7.30
2018-10-18T20:46:57.982Z,7.33
2018-10-18T20:51:50.484Z,7.30
2018-10-18T20:56:43.097Z,6.30
2018-10-18T21:01:35.727Z,6.17
2018-10-18T21:06:28.641Z,5.40
2018-10-18T21:11:21.216Z,5.60
2018-10-18T21:16:13.817Z,5.10
2018-10-18T21:21:06.479Z,4.93
2018-10-18T21:25:59.265Z,3.70
2018-10-18T21:30:51.869Z,3.47
2018-10-18T21:35:44.466Z,3.40
2018-10-18T21:40:37.080Z,3.50
2018-10-18T21:45:29.845Z,2.97
2018-10-18T21:50:22.502Z,3.90
2018-10-18T21:55:15.130Z,3.23
2018-10-18T22:00:13.999Z,3.30
2018-10-18T22:05:06.720Z,2.43
2018-10-18T22:09:59.309Z,2.90
2018-10-18T22:14:51.963Z,2.63
2018-10-18T22:19:44.766Z,2.13
2018-10-18T22:24:37.413Z,2.40
2018-10-18T22:29:30.035Z,2.60
2018-10-18T22:34:22.718Z,2.67
2018-10-18T22:39:15.278Z,2.70
2018-10-18T22:44:08.439Z,3.50
2018-10-18T22:49:01.080Z,3.23
2018-10-18T22:53:53.693Z,2.60
2018-10-18T22:58:46.380Z,2.77
2018-10-18T23:03:39.014Z,2.97
2018-10-18T23:08:31.732Z,3.30
2018-10-18T23:13:24.507Z,3.20
2018-10-18T23:18:17.159Z,3.17
2018-10-18T23:23:10.570Z,3.60
2018-10-18T23:28:03.237Z,3.10
2018-10-18T23:32:55.886Z,3.70
2018-10-18T23:37:48.537Z,2.77
2018-10-18T23:42:41.171Z,3.30
2018-10-18T23:47:33.758Z,2.90
2018-10-18T23:52:26.351Z,3.40
2018-10-18T23:57:19.026Z,3.17
